createdAt,value
2022-08-17T00:00:42.925Z,16.88
2022-08-17T00:03:38.562Z,16.83
2022-08-17T00:06:31.391Z,16.79
2022-08-17T00:09:20.967Z,16.76
2022-08-17T00:12:43.155Z,16.73
2022-08-17T00:15:22.051Z,16.70
2022-08-17T00:18:58.115Z,16.65
2022-08-17T00:21:25.451Z,16.59
2022-08-17T00:24:15.905Z,16.58
2022-08-17T00:27:05.554Z,16.53
2022-08-17T00:29:54.857Z,16.50
2022-08-17T00:33:12.248Z,16.48
2022-08-17T00:36:00.080Z,16.44
2022-08-17T00:38:49.318Z,16.39
2022-08-17T00:41:42.399Z,16.33
2022-08-17T00:44:32.157Z,16.30
2022-08-17T00:47:21.455Z,16.26
2022-08-17T00:50:16.678Z,16.21
2022-08-17T00:53:08.009Z,16.15
2022-08-17T00:56:00.881Z,16.11
2022-08-17T00:58:53.072Z,16.07
2022-08-17T01:01:43.429Z,16.06
2022-08-17T01:04:34.368Z,16.02
2022-08-17T01:07:26.916Z,15.97
2022-08-17T01:10:57.142Z,15.91
2022-08-17T01:13:40.989Z,15.90
2022-08-17T01:16:33.433Z,15.86
2022-08-17T01:19:27.004Z,15.82
2022-08-17T01:22:25.332Z,15.77
2022-08-17T01:25:15.874Z,15.71
2022-08-17T01:28:06.080Z,15.70
2022-08-17T01:30:59.521Z,15.67
2022-08-17T01:33:48.876Z,15.64
2022-08-17T01:36:40.061Z,15.58
2022-08-17T01:39:35.851Z,15.57
2022-08-17T01:42:33.879Z,15.56
2022-08-17T01:45:32.083Z,15.53
2022-08-17T01:48:22.168Z,15.50
2022-08-17T01:51:11.498Z,15.46
2022-08-17T01:54:06.436Z,15.45
2022-08-17T01:56:57.091Z,15.44
2022-08-17T01:59:46.385Z,15.38
2022-08-17T02:02:35.516Z,15.38
2022-08-17T02:05:24.911Z,15.34
2022-08-17T02:08:19.912Z,15.30
2022-08-17T02:11:14.546Z,15.26
2022-08-17T02:14:08.212Z,15.25
2022-08-17T02:16:57.697Z,15.23
2022-08-17T02:19:49.105Z,15.18
2022-08-17T02:22:43.799Z,15.16
2022-08-17T02:25:35.195Z,15.14
2022-08-17T02:28:24.532Z,15.15
2022-08-17T02:31:15.236Z,15.13
2022-08-17T02:34:06.201Z,15.09
2022-08-17T02:36:55.539Z,15.05
2022-08-17T02:39:45.561Z,15.03
2022-08-17T02:42:44.011Z,15.02
2022-08-17T02:45:33.651Z,15.02
2022-08-17T02:48:30.541Z,14.99
2022-08-17T02:51:21.214Z,15.00
2022-08-17T02:54:41.669Z,14.97
2022-08-17T02:57:19.680Z,14.95
2022-08-17T03:00:14.708Z,14.92
2022-08-17T03:03:06.876Z,14.87
2022-08-17T03:05:57.508Z,14.88
2022-08-17T03:08:47.827Z,14.85
2022-08-17T03:11:37.297Z,14.85
2022-08-17T03:14:28.444Z,14.81
2022-08-17T03:17:17.751Z,14.80
2022-08-17T03:20:09.288Z,14.77
2022-08-17T03:23:02.681Z,14.72
2022-08-17T03:25:53.490Z,14.72
2022-08-17T03:28:43.040Z,14.68
2022-08-17T03:31:32.465Z,14.64
2022-08-17T03:34:22.650Z,14.62
2022-08-17T03:37:12.461Z,14.56
2022-08-17T03:40:03.422Z,14.56
2022-08-17T03:42:54.736Z,14.50
2022-08-17T03:46:02.370Z,14.51
2022-08-17T03:49:09.038Z,14.51
2022-08-17T03:52:16.920Z,14.48
2022-08-17T03:55:35.953Z,14.45
2022-08-17T03:58:25.703Z,14.45
2022-08-17T04:01:16.325Z,14.43
2022-08-17T04:04:06.633Z,14.43
2022-08-17T04:06:56.250Z,14.47
2022-08-17T04:09:45.669Z,14.47
2022-08-17T04:12:47.881Z,14.42
2022-08-17T04:15:37.077Z,14.45
2022-08-17T04:18:26.593Z,14.42
2022-08-17T04:21:15.898Z,14.38
2022-08-17T04:24:06.036Z,14.36
2022-08-17T04:26:55.461Z,14.37
2022-08-17T04:29:55.501Z,14.38
2022-08-17T04:33:05.191Z,14.35
2022-08-17T04:36:03.197Z,14.40
2022-08-17T04:38:52.493Z,14.40
2022-08-17T04:41:59.341Z,14.41
2022-08-17T04:44:50.073Z,14.45
2022-08-17T04:47:39.565Z,14.49
2022-08-17T04:50:28.785Z,14.56
2022-08-17T04:53:21.745Z,14.62
2022-08-17T04:56:16.779Z,14.65
2022-08-17T04:59:13.184Z,14.75
2022-08-17T05:02:03.979Z,14.82
2022-08-17T05:04:53.277Z,14.89
2022-08-17T05:07:44.627Z,14.91
2022-08-17T05:10:45.398Z,14.96
2022-08-17T05:13:35.654Z,15.02
2022-08-17T05:16:27.349Z,15.16
2022-08-17T05:19:18.097Z,15.21
2022-08-17T05:22:07.870Z,15.29
2022-08-17T05:24:57.014Z,15.35
2022-08-17T05:27:47.187Z,15.32
2022-08-17T05:30:38.090Z,15.41
2022-08-17T05:33:30.474Z,15.46
2022-08-17T05:36:37.844Z,15.57
2022-08-17T05:39:31.104Z,15.65
2022-08-17T05:42:21.203Z,15.77
2022-08-17T05:45:12.326Z,15.89
2022-08-17T05:48:01.678Z,15.98
2022-08-17T05:51:07.332Z,16.12
2022-08-17T05:54:23.229Z,16.23
2022-08-17T05:57:43.490Z,16.31
2022-08-17T06:00:56.093Z,16.50
2022-08-17T06:04:02.899Z,16.65
2022-08-17T06:07:05.332Z,16.78
2022-08-17T06:10:11.754Z,16.98
2022-08-17T06:13:14.046Z,17.16
2022-08-17T06:16:32.899Z,17.34
2022-08-17T06:19:28.799Z,17.51
2022-08-17T06:22:23.357Z,17.64
2022-08-17T06:25:23.054Z,17.79
2022-08-17T06:28:25.266Z,17.94
2022-08-17T06:31:27.398Z,18.11
2022-08-17T06:34:16.689Z,18.30
2022-08-17T06:37:27.951Z,18.51
2022-08-17T06:40:55.272Z,18.70
2022-08-17T06:44:03.935Z,18.89
2022-08-17T06:47:00.522Z,19.09
2022-08-17T06:50:01.078Z,19.25
2022-08-17T06:52:57.930Z,19.43
2022-08-17T06:55:59.833Z,19.63
2022-08-17T06:58:49.863Z,19.83
2022-08-17T07:01:43.079Z,20.02
2022-08-17T07:04:36.663Z,20.18
2022-08-17T07:07:43.487Z,20.39
2022-08-17T07:10:48.780Z,20.66
2022-08-17T07:13:51.521Z,20.90
2022-08-17T07:16:46.829Z,21.09
2022-08-17T07:19:40.612Z,21.27
2022-08-17T07:22:50.644Z,21.56
2022-08-17T07:25:48.876Z,21.84
2022-08-17T07:28:43.926Z,22.10
2022-08-17T07:31:33.708Z,22.35
2022-08-17T07:34:23.020Z,22.59
2022-08-17T07:37:14.672Z,22.86
2022-08-17T07:40:27.949Z,23.19
2022-08-17T07:43:29.349Z,23.45
2022-08-17T07:46:41.341Z,23.75
2022-08-17T07:49:38.386Z,24.10
2022-08-17T07:52:51.098Z,24.36
2022-08-17T07:55:41.817Z,24.67
2022-08-17T07:58:31.001Z,25.01
2022-08-17T08:01:21.650Z,25.36
2022-08-17T08:07:51.105Z,26.05
2022-08-17T08:10:45.277Z,26.35
2022-08-17T08:13:40.404Z,26.74
2022-08-17T08:16:31.060Z,27.08
2022-08-17T08:19:21.157Z,27.39
2022-08-17T08:22:19.622Z,27.62
2022-08-17T08:25:25.484Z,27.88
2022-08-17T08:28:30.941Z,28.15
2022-08-17T08:31:42.583Z,28.35
2022-08-17T08:35:02.046Z,28.49
2022-08-17T08:38:03.547Z,28.93
2022-08-17T08:41:17.487Z,29.33
2022-08-17T08:45:00.784Z,29.60
2022-08-17T08:48:22.939Z,29.51
2022-08-17T08:51:27.861Z,29.96
2022-08-17T08:54:34.372Z,30.56
2022-08-17T08:57:34.421Z,31.09
2022-08-17T09:00:27.293Z,31.34
2022-08-17T09:03:53.114Z,31.59
2022-08-17T09:06:57.977Z,31.89
2022-08-17T09:09:59.391Z,31.96
2022-08-17T09:12:57.960Z,32.20
2022-08-17T09:15:51.645Z,32.22
2022-08-17T09:19:02.177Z,32.67
2022-08-17T09:21:58.817Z,33.20
2022-08-17T09:24:54.620Z,33.60
2022-08-17T09:27:57.316Z,33.99
2022-08-17T09:30:53.548Z,34.27
2022-08-17T09:33:48.232Z,34.42
2022-08-17T09:36:45.429Z,34.53
2022-08-17T09:39:40.504Z,34.73
2022-08-17T09:42:37.115Z,35.03
2022-08-17T09:45:32.582Z,35.31
2022-08-17T09:48:27.569Z,35.26
2022-08-17T09:51:25.134Z,35.08
2022-08-17T09:54:38.582Z,35.54
2022-08-17T09:57:51.521Z,36.00
2022-08-17T10:00:49.003Z,35.97
2022-08-17T10:04:01.188Z,35.82
2022-08-17T10:07:11.377Z,36.46
2022-08-17T10:10:14.389Z,36.88
2022-08-17T10:13:11.908Z,37.17
2022-08-17T10:16:10.968Z,37.44
2022-08-17T10:19:17.137Z,37.47
2022-08-17T10:22:34.570Z,37.72
2022-08-17T10:25:59.518Z,38.07
2022-08-17T10:28:54.442Z,37.90
2022-08-17T10:31:47.543Z,38.07
2022-08-17T10:34:58.916Z,38.07
2022-08-17T10:38:04.910Z,38.15
2022-08-17T10:41:00.732Z,38.13
2022-08-17T10:44:38.455Z,37.66
2022-08-17T10:47:11.445Z,37.97
2022-08-17T10:50:39.023Z,38.35
2022-08-17T10:53:58.159Z,38.65
2022-08-17T10:56:51.040Z,38.75
2022-08-17T10:59:55.043Z,38.23
2022-08-17T11:02:50.836Z,37.95
2022-08-17T11:05:54.017Z,38.15
2022-08-17T11:09:19.526Z,38.20
2022-08-17T11:12:31.834Z,38.48
2022-08-17T11:15:33.930Z,38.70
2022-08-17T11:18:47.514Z,39.00
2022-08-17T11:22:08.097Z,39.13
2022-08-17T11:25:14.761Z,39.27
2022-08-17T11:28:15.118Z,39.62
2022-08-17T11:31:09.781Z,39.32
2022-08-17T11:34:04.518Z,39.15
2022-08-17T11:37:32.424Z,39.08
2022-08-17T11:40:41.147Z,38.79
2022-08-17T11:43:55.569Z,39.27
2022-08-17T11:47:20.819Z,39.41
2022-08-17T11:51:11.447Z,39.84
2022-08-17T11:54:31.011Z,39.77
2022-08-17T11:58:01.972Z,39.60
2022-08-17T12:00:56.680Z,39.76
2022-08-17T12:03:53.767Z,39.88
2022-08-17T12:06:50.077Z,39.42
2022-08-17T12:09:44.628Z,39.34
2022-08-17T12:12:35.858Z,39.13
2022-08-17T12:15:32.718Z,38.85
2022-08-17T12:18:25.823Z,38.83
2022-08-17T12:21:26.083Z,39.38
2022-08-17T12:24:31.366Z,39.64
2022-08-17T12:28:04.157Z,39.59
2022-08-17T12:30:39.716Z,39.42
2022-08-17T12:33:29.188Z,39.51
2022-08-17T12:36:24.489Z,39.32
2022-08-17T12:39:25.031Z,39.13
2022-08-17T12:42:29.363Z,39.14
2022-08-17T12:45:26.378Z,39.16
2022-08-17T12:48:26.817Z,38.98
2022-08-17T12:51:16.136Z,39.26
2022-08-17T12:54:05.509Z,39.16
2022-08-17T12:56:55.351Z,38.63
2022-08-17T12:59:50.563Z,38.47
2022-08-17T13:02:46.805Z,38.44
2022-08-17T13:05:41.376Z,38.34
2022-08-17T13:08:36.041Z,38.34
2022-08-17T13:11:26.505Z,38.34
2022-08-17T13:14:18.399Z,38.19
2022-08-17T13:17:13.205Z,38.11
2022-08-17T13:20:06.163Z,37.98
2022-08-17T13:23:01.758Z,37.80
2022-08-17T13:25:55.604Z,37.67
2022-08-17T13:28:51.396Z,37.42
2022-08-17T13:31:52.099Z,37.23
2022-08-17T13:35:12.880Z,37.06
2022-08-17T13:38:02.521Z,36.80
2022-08-17T13:40:54.386Z,36.54
2022-08-17T13:43:50.485Z,36.32
2022-08-17T13:46:39.913Z,36.17
2022-08-17T13:49:41.559Z,36.00
2022-08-17T13:52:43.737Z,35.87
2022-08-17T13:55:35.332Z,35.68
2022-08-17T13:58:28.678Z,35.60
2022-08-17T14:01:33.902Z,35.67
2022-08-17T14:04:29.885Z,35.83
2022-08-17T14:07:34.682Z,35.83
2022-08-17T14:10:25.178Z,35.69
2022-08-17T14:13:15.753Z,35.57
2022-08-17T14:16:05.596Z,35.48
2022-08-17T14:18:56.310Z,35.38
2022-08-17T14:21:47.863Z,35.30
2022-08-17T14:24:44.918Z,35.44
2022-08-17T14:27:47.132Z,35.62
2022-08-17T14:30:44.181Z,35.67
2022-08-17T14:33:35.071Z,35.59
2022-08-17T14:36:24.792Z,35.48
2022-08-17T14:39:15.632Z,35.40
2022-08-17T14:42:05.258Z,35.38
2022-08-17T14:44:55.761Z,35.30
2022-08-17T14:47:46.447Z,35.13
2022-08-17T14:50:36.358Z,34.99
2022-08-17T14:53:25.591Z,34.85
2022-08-17T14:56:14.908Z,34.78
2022-08-17T14:59:04.229Z,34.65
2022-08-17T15:01:53.488Z,34.54
2022-08-17T15:04:48.139Z,34.38
2022-08-17T15:07:37.435Z,34.20
2022-08-17T15:10:26.968Z,34.09
2022-08-17T15:13:23.042Z,33.92
2022-08-17T15:16:13.786Z,33.83
2022-08-17T15:19:03.481Z,33.73
2022-08-17T15:21:54.119Z,33.70
2022-08-17T15:24:43.323Z,33.66
2022-08-17T15:27:33.069Z,33.54
2022-08-17T15:30:26.511Z,33.42
2022-08-17T15:33:17.492Z,33.31
2022-08-17T15:36:09.249Z,33.25
2022-08-17T15:39:00.419Z,33.15
2022-08-17T15:41:58.081Z,33.02
2022-08-17T15:44:49.467Z,32.90
2022-08-17T15:47:38.860Z,32.83
2022-08-17T15:50:28.168Z,32.74
2022-08-17T15:53:17.458Z,32.66
2022-08-17T15:56:08.876Z,32.57
2022-08-17T15:58:58.439Z,32.47
2022-08-17T16:03:14.150Z,32.36
2022-08-17T16:05:04.806Z,32.24
2022-08-17T16:07:59.785Z,32.17
2022-08-17T16:10:50.106Z,32.06
2022-08-17T16:13:41.636Z,31.97
2022-08-17T16:16:31.204Z,31.90
2022-08-17T16:19:20.445Z,31.80
2022-08-17T16:22:13.044Z,31.71
2022-08-17T16:25:06.953Z,31.65
2022-08-17T16:27:56.167Z,31.68
2022-08-17T16:30:46.807Z,31.77
2022-08-17T16:33:36.658Z,31.79
2022-08-17T16:36:26.045Z,31.82
2022-08-17T16:39:16.038Z,31.85
2022-08-17T16:42:09.065Z,31.86
2022-08-17T16:45:04.999Z,31.85
2022-08-17T16:48:01.529Z,31.81
2022-08-17T16:51:03.086Z,31.79
2022-08-17T16:53:59.149Z,31.71
2022-08-17T16:56:49.893Z,31.66
2022-08-17T16:59:42.607Z,31.59
2022-08-17T17:02:37.711Z,31.53
2022-08-17T17:05:51.419Z,31.47
2022-08-17T17:08:54.784Z,31.37
2022-08-17T17:11:47.227Z,31.27
2022-08-17T17:14:43.292Z,31.17
2022-08-17T17:17:36.905Z,31.06
2022-08-17T17:20:36.432Z,30.93
2022-08-17T17:23:45.998Z,30.79
2022-08-17T17:27:07.211Z,30.67
2022-08-17T17:30:09.630Z,30.53
2022-08-17T17:33:06.192Z,30.41
2022-08-17T17:36:01.296Z,30.25
2022-08-17T17:38:55.289Z,30.09
2022-08-17T17:41:52.347Z,29.92
2022-08-17T17:44:47.973Z,29.76
2022-08-17T17:47:38.976Z,29.63
2022-08-17T17:50:38.590Z,29.47
2022-08-17T17:53:52.558Z,29.29
2022-08-17T17:56:51.653Z,29.11
2022-08-17T17:59:53.908Z,28.96
2022-08-17T18:03:04.434Z,28.79
2022-08-17T18:06:14.904Z,28.61
2022-08-17T18:09:20.620Z,28.44
2022-08-17T18:12:29.836Z,28.22
2022-08-17T18:15:34.033Z,28.06
2022-08-17T18:18:38.985Z,27.89
2022-08-17T18:21:37.378Z,27.70
2022-08-17T18:24:36.005Z,27.55
2022-08-17T18:27:34.838Z,27.39
2022-08-17T18:30:30.618Z,27.24
2022-08-17T18:33:26.269Z,27.10
2022-08-17T18:36:29.743Z,26.96
2022-08-17T18:39:23.007Z,26.81
2022-08-17T18:42:28.136Z,26.62
2022-08-17T18:45:38.140Z,26.47
2022-08-17T18:48:36.519Z,26.32
2022-08-17T18:51:42.476Z,26.13
2022-08-17T18:54:32.522Z,25.96
2022-08-17T18:57:37.718Z,25.81
2022-08-17T19:04:31.609Z,25.45
2022-08-17T19:07:31.598Z,25.29
2022-08-17T19:10:25.996Z,25.15
2022-08-17T19:13:24.283Z,25.00
2022-08-17T19:16:22.862Z,24.86
2022-08-17T19:19:19.987Z,24.73
2022-08-17T19:22:29.003Z,24.61
2022-08-17T19:25:27.731Z,24.48
2022-08-17T19:28:25.873Z,24.32
2022-08-17T19:31:21.905Z,24.20
2022-08-17T19:34:13.956Z,24.10
2022-08-17T19:37:12.523Z,23.98
2022-08-17T19:40:41.779Z,23.87
2022-08-17T19:44:00.085Z,23.78
2022-08-17T19:47:03.063Z,23.68
2022-08-17T19:50:09.966Z,23.55
2022-08-17T19:53:09.645Z,23.41
2022-08-17T19:56:11.428Z,23.28
2022-08-17T19:59:12.744Z,23.18
2022-08-17T20:02:16.418Z,23.10
2022-08-17T20:05:22.674Z,23.01
2022-08-17T20:08:18.669Z,22.92
2022-08-17T20:11:16.249Z,22.83
2022-08-17T20:14:14.283Z,22.72
2022-08-17T20:17:05.448Z,22.65
2022-08-17T20:20:06.435Z,22.58
2022-08-17T20:23:06.784Z,22.49
2022-08-17T20:26:17.204Z,22.43
2022-08-17T20:29:39.803Z,22.33
2022-08-17T20:32:35.277Z,22.25
2022-08-17T20:35:30.297Z,22.17
2022-08-17T20:38:44.598Z,22.08
2022-08-17T20:42:05.394Z,22.01
2022-08-17T20:44:59.264Z,21.95
2022-08-17T20:48:15.528Z,21.89
2022-08-17T20:51:25.917Z,21.81
2022-08-17T20:54:51.364Z,21.75
2022-08-17T20:57:49.626Z,21.72
2022-08-17T21:00:52.151Z,21.67
2022-08-17T21:03:54.085Z,21.62
2022-08-17T21:07:29.185Z,21.56
2022-08-17T21:10:31.768Z,21.47
2022-08-17T21:13:56.772Z,21.42
2022-08-17T21:17:14.900Z,21.36
2022-08-17T21:20:24.437Z,21.30
2022-08-17T21:23:53.917Z,21.31
2022-08-17T21:26:57.694Z,21.28
2022-08-17T21:30:12.221Z,21.26
2022-08-17T21:33:31.628Z,21.23
2022-08-17T21:36:31.400Z,21.17
2022-08-17T21:39:31.448Z,21.09
2022-08-17T21:42:29.060Z,21.01
2022-08-17T21:45:27.244Z,20.96
2022-08-17T21:48:21.970Z,20.90
2022-08-17T21:51:17.516Z,20.86
2022-08-17T21:54:31.723Z,20.78
2022-08-17T21:57:28.232Z,20.72
2022-08-17T22:00:29.093Z,20.69
2022-08-17T22:03:27.814Z,20.65
2022-08-17T22:06:25.337Z,20.60
2022-08-17T22:09:22.347Z,20.53
2022-08-17T22:12:16.901Z,20.51
2022-08-17T22:15:17.714Z,20.50
2022-08-17T22:18:19.406Z,20.49
2022-08-17T22:21:10.272Z,20.48
2022-08-17T22:24:07.299Z,20.45
2022-08-17T22:27:26.760Z,20.43
2022-08-17T22:30:27.676Z,20.46
2022-08-17T22:34:08.671Z,20.46
2022-08-17T22:37:29.913Z,20.47
2022-08-17T22:40:30.485Z,20.47
2022-08-17T22:43:24.251Z,20.48
2022-08-17T22:46:16.606Z,20.48
2022-08-17T22:49:06.134Z,20.47
2022-08-17T22:52:06.222Z,20.45
2022-08-17T22:55:46.343Z,20.43
2022-08-17T22:58:59.168Z,20.41
2022-08-17T23:02:22.249Z,20.38
2022-08-17T23:05:24.235Z,20.38
2022-08-17T23:08:14.667Z,20.38
2022-08-17T23:11:07.523Z,20.39
2022-08-17T23:13:59.305Z,20.40
2022-08-17T23:16:50.122Z,20.36
2022-08-17T23:19:40.354Z,20.36
2022-08-17T23:22:30.301Z,20.35
2022-08-17T23:25:28.097Z,20.32
2022-08-17T23:28:21.609Z,20.29
2022-08-17T23:31:17.498Z,20.28
2022-08-17T23:34:12.867Z,20.28
2022-08-17T23:37:04.781Z,20.29
2022-08-17T23:39:57.532Z,20.33
2022-08-17T23:43:23.408Z,20.34
2022-08-17T23:46:17.426Z,20.30
2022-08-17T23:49:11.004Z,20.27
2022-08-17T23:52:07.405Z,20.24
2022-08-17T23:54:59.434Z,20.23
2022-08-17T23:57:48.883Z,20.21
